createdAt,value
2023-01-21T00:00:15.819Z,24.70
2023-01-21T00:02:48.483Z,24.70
2023-01-21T00:05:21.225Z,24.70
2023-01-21T00:07:54.013Z,24.80
2023-01-21T00:10:26.828Z,24.80
2023-01-21T00:12:59.546Z,24.70
2023-01-21T00:15:32.699Z,24.70
2023-01-21T00:18:05.523Z,24.70
2023-01-21T00:20:38.425Z,24.60
2023-01-21T00:23:12.685Z,24.70
2023-01-21T00:25:45.530Z,24.70
2023-01-21T00:28:18.325Z,24.60
2023-01-21T00:30:52.547Z,24.60
2023-01-21T00:33:25.205Z,24.60
2023-01-21T00:36:05.581Z,24.60
2023-01-21T00:38:39.645Z,24.60
2023-01-21T00:41:14.352Z,24.60
2023-01-21T00:43:47.258Z,24.60
2023-01-21T00:46:19.960Z,24.60
2023-01-21T00:48:52.877Z,24.70
2023-01-21T00:51:29.728Z,24.70
2023-01-21T00:54:02.960Z,24.70
2023-01-21T00:56:36.321Z,24.70
2023-01-21T00:59:09.499Z,24.60
2023-01-21T01:01:44.502Z,24.60
2023-01-21T01:04:16.837Z,24.60
2023-01-21T01:06:49.692Z,24.70
2023-01-21T01:09:22.842Z,24.70
2023-01-21T01:11:55.661Z,24.70
2023-01-21T01:14:29.046Z,24.80
2023-01-21T01:17:01.872Z,24.80
2023-01-21T01:19:34.872Z,24.80
2023-01-21T01:22:07.732Z,24.80
2023-01-21T01:24:40.353Z,24.80
2023-01-21T01:27:13.097Z,24.90
2023-01-21T01:29:45.843Z,24.90
2023-01-21T01:32:18.775Z,24.90
2023-01-21T01:34:51.676Z,24.90
2023-01-21T01:37:24.637Z,24.90
2023-01-21T01:39:57.502Z,24.90
2023-01-21T01:42:31.592Z,24.90
2023-01-21T01:45:06.336Z,24.90
2023-01-21T01:47:41.165Z,24.90
2023-01-21T01:50:16.447Z,24.90
2023-01-21T01:52:50.189Z,24.90
2023-01-21T01:55:23.756Z,24.90
2023-01-21T01:57:57.928Z,24.90
2023-01-21T02:00:36.324Z,24.80
2023-01-21T02:03:26.633Z,24.80
2023-01-21T02:06:00.196Z,24.80
2023-01-21T02:08:34.681Z,24.90
2023-01-21T02:11:09.058Z,24.90
2023-01-21T02:13:42.142Z,24.90
2023-01-21T02:16:34.861Z,24.90
2023-01-21T02:19:37.972Z,24.90
2023-01-21T02:22:39.786Z,24.90
2023-01-21T02:25:35.597Z,24.80
2023-01-21T02:28:22.548Z,24.80
2023-01-21T02:31:18.788Z,24.80
2023-01-21T02:33:56.645Z,24.80
2023-01-21T02:36:40.424Z,24.80
2023-01-21T02:39:27.326Z,24.80
2023-01-21T02:42:11.336Z,24.70
2023-01-21T02:44:46.055Z,24.70
2023-01-21T02:47:41.565Z,24.70
2023-01-21T02:50:17.119Z,24.70
2023-01-21T02:52:51.771Z,24.70
2023-01-21T02:55:26.058Z,24.70
2023-01-21T02:58:04.200Z,24.70
2023-01-21T03:00:42.161Z,24.70
2023-01-21T03:03:41.310Z,24.70
2023-01-21T03:06:28.442Z,24.60
2023-01-21T03:09:24.557Z,24.60
2023-01-21T03:12:20.539Z,24.60
2023-01-21T03:15:38.008Z,24.60
2023-01-21T03:18:12.820Z,24.60
2023-01-21T03:20:48.187Z,24.50
2023-01-21T03:23:22.971Z,24.50
2023-01-21T03:25:55.859Z,24.50
2023-01-21T03:28:30.463Z,24.50
2023-01-21T03:31:05.486Z,24.50
2023-01-21T03:33:40.123Z,24.50
2023-01-21T03:36:43.509Z,24.50
2023-01-21T03:39:26.930Z,24.40
2023-01-21T03:41:59.955Z,24.40
2023-01-21T03:44:32.970Z,24.40
2023-01-21T03:47:34.364Z,24.40
2023-01-21T03:50:18.755Z,24.40
2023-01-21T03:52:54.976Z,24.30
2023-01-21T03:55:28.329Z,24.30
2023-01-21T03:58:02.574Z,24.30
2023-01-21T04:00:39.572Z,24.30
2023-01-21T04:03:13.039Z,24.30
2023-01-21T04:05:45.868Z,24.30
2023-01-21T04:08:18.775Z,24.20
2023-01-21T04:10:51.701Z,24.20
2023-01-21T04:13:24.902Z,24.20
2023-01-21T04:16:00.528Z,24.20
2023-01-21T04:18:33.484Z,24.20
2023-01-21T04:21:06.372Z,24.20
2023-01-21T04:23:39.224Z,24.20
2023-01-21T04:26:12.779Z,24.20
2023-01-21T04:28:45.632Z,24.20
2023-01-21T04:31:18.685Z,24.10
2023-01-21T04:33:51.595Z,24.10
2023-01-21T04:36:26.091Z,24.10
2023-01-21T04:38:59.085Z,24.00
2023-01-21T04:41:32.034Z,24.00
2023-01-21T04:44:07.103Z,24.00
2023-01-21T04:46:40.296Z,24.00
2023-01-21T04:49:13.110Z,23.90
2023-01-21T04:51:46.030Z,23.90
2023-01-21T04:54:19.010Z,23.80
2023-01-21T04:56:52.419Z,23.80
2023-01-21T04:59:25.464Z,23.80
2023-01-21T05:01:58.298Z,23.70
2023-01-21T05:04:31.278Z,23.70
2023-01-21T05:07:04.197Z,23.70
2023-01-21T05:09:37.675Z,23.60
2023-01-21T05:12:11.253Z,23.60
2023-01-21T05:14:44.317Z,23.60
2023-01-21T05:17:17.290Z,23.60
2023-01-21T05:19:50.119Z,23.60
2023-01-21T05:22:22.946Z,23.60
2023-01-21T05:24:56.395Z,23.50
2023-01-21T05:27:29.207Z,23.50
2023-01-21T05:30:02.256Z,23.50
2023-01-21T05:32:35.110Z,23.50
2023-01-21T05:35:09.071Z,23.50
2023-01-21T05:37:42.142Z,23.50
2023-01-21T05:40:16.235Z,23.40
2023-01-21T05:42:49.807Z,23.40
2023-01-21T05:45:22.740Z,23.40
2023-01-21T05:47:55.508Z,23.40
2023-01-21T05:50:28.386Z,23.40
2023-01-21T05:53:01.170Z,23.30
2023-01-21T05:55:38.187Z,23.30
2023-01-21T05:58:11.000Z,23.30
2023-01-21T06:00:44.428Z,23.30
2023-01-21T06:03:17.712Z,23.30
2023-01-21T06:05:51.892Z,23.20
2023-01-21T06:08:25.473Z,23.20
2023-01-21T06:10:59.218Z,23.20
2023-01-21T06:13:32.094Z,23.20
2023-01-21T06:16:04.927Z,23.20
2023-01-21T06:18:37.846Z,23.20
2023-01-21T06:21:10.863Z,23.10
2023-01-21T06:23:43.632Z,23.10
2023-01-21T06:26:16.475Z,23.10
2023-01-21T06:28:49.363Z,23.10
2023-01-21T06:31:22.455Z,23.00
2023-01-21T06:33:55.438Z,23.00
2023-01-21T06:36:28.484Z,23.00
2023-01-21T06:39:01.138Z,23.00
2023-01-21T06:41:33.885Z,23.00
2023-01-21T06:44:06.667Z,23.00
2023-01-21T06:47:00.735Z,23.00
2023-01-21T06:49:27.940Z,22.90
2023-01-21T06:52:01.092Z,22.90
2023-01-21T06:54:33.957Z,22.90
2023-01-21T06:57:06.995Z,22.90
2023-01-21T06:59:40.678Z,22.90
2023-01-21T07:02:15.662Z,22.90
2023-01-21T07:04:48.631Z,22.90
2023-01-21T07:07:21.587Z,22.80
2023-01-21T07:09:55.819Z,22.80
2023-01-21T07:12:28.683Z,22.80
2023-01-21T07:15:01.394Z,22.80
2023-01-21T07:17:35.415Z,22.80
2023-01-21T07:20:08.425Z,22.80
2023-01-21T07:22:41.286Z,22.70
2023-01-21T07:25:14.440Z,22.70
2023-01-21T07:27:47.262Z,22.70
2023-01-21T07:30:21.650Z,22.70
2023-01-21T07:32:54.550Z,22.70
2023-01-21T07:35:27.312Z,22.60
2023-01-21T07:38:00.210Z,22.60
2023-01-21T07:40:32.980Z,22.60
2023-01-21T07:43:05.949Z,22.50
2023-01-21T07:45:38.941Z,22.50
2023-01-21T07:48:12.039Z,22.50
2023-01-21T07:50:45.021Z,22.50
2023-01-21T07:53:17.777Z,22.50
2023-01-21T07:55:50.569Z,22.50
2023-01-21T07:58:23.509Z,22.50
2023-01-21T08:00:56.603Z,22.50
2023-01-21T08:03:29.331Z,22.50
2023-01-21T08:06:02.255Z,22.50
2023-01-21T08:08:35.258Z,22.40
2023-01-21T08:11:08.179Z,22.40
2023-01-21T08:13:41.603Z,22.40
2023-01-21T08:16:15.640Z,22.30
2023-01-21T08:18:48.625Z,22.30
2023-01-21T08:21:22.923Z,22.30
2023-01-21T08:23:55.930Z,22.30
2023-01-21T08:26:29.001Z,22.30
2023-01-21T08:29:02.130Z,22.30
2023-01-21T08:31:35.064Z,22.30
2023-01-21T08:34:07.962Z,22.20
2023-01-21T08:36:41.711Z,22.20
2023-01-21T08:39:17.209Z,22.20
2023-01-21T08:41:50.155Z,22.20
2023-01-21T08:44:23.005Z,22.20
2023-01-21T08:46:55.853Z,22.10
2023-01-21T08:49:28.851Z,22.10
2023-01-21T08:52:01.988Z,22.10
2023-01-21T08:54:34.853Z,22.10
2023-01-21T08:57:07.764Z,22.10
2023-01-21T08:59:41.089Z,22.10
2023-01-21T09:02:15.484Z,22.10
2023-01-21T09:04:49.434Z,22.10
2023-01-21T09:07:22.405Z,22.00
2023-01-21T09:09:55.220Z,22.00
2023-01-21T09:12:28.300Z,22.00
2023-01-21T09:15:01.337Z,22.00
2023-01-21T09:17:34.346Z,22.00
2023-01-21T09:20:07.420Z,22.00
2023-01-21T09:22:40.417Z,21.90
2023-01-21T09:25:13.767Z,21.90
2023-01-21T09:27:46.530Z,21.90
2023-01-21T09:30:20.239Z,21.90
2023-01-21T09:32:53.169Z,21.90
2023-01-21T09:35:25.969Z,21.80
2023-01-21T09:37:59.007Z,21.80
2023-01-21T09:40:32.041Z,21.80
2023-01-21T09:43:06.596Z,21.80
2023-01-21T09:45:39.902Z,21.80
2023-01-21T09:48:14.402Z,21.80
2023-01-21T09:50:49.081Z,21.80
2023-01-21T09:53:38.980Z,21.80
2023-01-21T09:56:14.276Z,21.80
2023-01-21T09:58:58.390Z,21.80
2023-01-21T10:01:39.889Z,21.80
2023-01-21T10:04:15.343Z,21.80
2023-01-21T10:07:00.470Z,21.80
2023-01-21T10:10:02.500Z,21.70
2023-01-21T10:12:46.949Z,21.70
2023-01-21T10:15:39.981Z,21.70
2023-01-21T10:18:28.485Z,21.70
2023-01-21T10:21:03.110Z,21.70
2023-01-21T10:23:45.363Z,21.60
2023-01-21T10:26:18.553Z,21.70
2023-01-21T10:28:53.180Z,21.60
2023-01-21T10:31:28.374Z,21.60
2023-01-21T10:34:01.505Z,21.70
2023-01-21T10:36:42.793Z,21.70
2023-01-21T10:39:20.623Z,21.60
2023-01-21T10:42:10.424Z,21.60
2023-01-21T10:45:01.785Z,21.60
2023-01-21T10:47:42.339Z,21.60
2023-01-21T10:50:55.761Z,21.60
2023-01-21T10:53:44.733Z,21.50
2023-01-21T10:56:31.667Z,21.60
2023-01-21T10:59:11.906Z,21.50
2023-01-21T11:01:52.145Z,21.50
2023-01-21T11:04:30.036Z,21.50
2023-01-21T11:07:11.168Z,21.50
2023-01-21T11:09:52.548Z,21.50
2023-01-21T11:12:26.775Z,21.60
2023-01-21T11:15:05.208Z,21.60
2023-01-21T11:17:43.155Z,21.60
2023-01-21T11:20:29.657Z,21.60
2023-01-21T11:23:06.767Z,21.60
2023-01-21T11:25:43.107Z,21.60
2023-01-21T11:28:29.728Z,21.60
2023-01-21T11:31:19.620Z,21.50
2023-01-21T11:33:52.256Z,21.50
2023-01-21T11:36:28.672Z,21.50
2023-01-21T11:39:10.939Z,21.50
2023-01-21T11:41:45.299Z,21.50
2023-01-21T11:44:25.397Z,21.50
2023-01-21T11:46:58.235Z,21.50
2023-01-21T11:49:40.830Z,21.50
2023-01-21T11:52:19.446Z,21.50
2023-01-21T11:54:52.795Z,21.50
2023-01-21T11:57:32.991Z,21.50
2023-01-21T12:00:10.443Z,21.50
2023-01-21T12:02:48.468Z,21.50
2023-01-21T12:05:26.686Z,21.50
2023-01-21T12:08:00.171Z,21.50
2023-01-21T12:10:49.781Z,21.40
2023-01-21T12:13:44.691Z,21.40
2023-01-21T12:16:42.821Z,21.40
2023-01-21T12:19:20.139Z,21.40
2023-01-21T12:22:00.546Z,21.30
2023-01-21T12:25:06.644Z,21.30
2023-01-21T12:27:56.531Z,21.30
2023-01-21T12:30:39.856Z,21.20
2023-01-21T12:33:20.634Z,21.20
2023-01-21T12:35:55.292Z,21.20
2023-01-21T12:38:45.445Z,21.20
2023-01-21T12:41:23.569Z,21.10
2023-01-21T12:43:58.617Z,21.10
2023-01-21T12:46:42.629Z,21.10
2023-01-21T12:49:19.966Z,21.10
2023-01-21T12:51:54.955Z,21.10
2023-01-21T12:54:38.481Z,21.00
2023-01-21T12:57:28.570Z,21.00
2023-01-21T13:00:09.347Z,21.00
2023-01-21T13:03:17.444Z,21.00
2023-01-21T13:05:55.764Z,20.90
2023-01-21T13:08:36.968Z,20.90
2023-01-21T13:11:23.130Z,20.90
2023-01-21T13:14:00.500Z,20.90
2023-01-21T13:16:35.061Z,20.80
2023-01-21T13:19:08.024Z,20.80
2023-01-21T13:21:59.270Z,20.80
2023-01-21T13:24:40.121Z,20.80
2023-01-21T13:27:20.857Z,20.80
2023-01-21T13:30:29.457Z,20.80
2023-01-21T13:33:19.842Z,20.70
2023-01-21T13:36:12.745Z,20.70
2023-01-21T13:39:08.163Z,20.60
2023-01-21T13:42:01.074Z,20.60
2023-01-21T13:45:00.456Z,20.60
2023-01-21T13:47:54.745Z,20.60
2023-01-21T13:50:44.645Z,20.60
2023-01-21T13:53:28.670Z,20.50
2023-01-21T13:56:26.219Z,20.50
2023-01-21T13:59:00.732Z,20.50
2023-01-21T14:01:45.450Z,20.60
2023-01-21T14:04:20.376Z,20.60
2023-01-21T14:07:07.208Z,20.60
2023-01-21T14:09:57.161Z,20.60
2023-01-21T14:12:38.364Z,20.70
2023-01-21T14:15:13.412Z,20.70
2023-01-21T14:18:09.394Z,20.70
2023-01-21T14:21:09.621Z,20.60
2023-01-21T14:23:47.726Z,20.60
2023-01-21T14:26:40.933Z,20.60
2023-01-21T14:29:27.887Z,20.60
2023-01-21T14:32:26.702Z,20.60
2023-01-21T14:35:28.878Z,20.60
2023-01-21T14:38:20.297Z,20.60
2023-01-21T14:40:58.004Z,20.60
2023-01-21T14:43:39.795Z,20.60
2023-01-21T14:46:39.352Z,20.60
2023-01-21T14:49:13.876Z,20.60
2023-01-21T14:51:51.463Z,20.60
2023-01-21T14:54:25.975Z,20.60
2023-01-21T14:57:18.302Z,20.60
2023-01-21T14:59:39.902Z,20.60
2023-01-21T15:02:39.998Z,20.60
2023-01-21T15:05:40.626Z,20.70
2023-01-21T15:08:33.643Z,20.60
2023-01-21T15:11:10.315Z,20.60
2023-01-21T15:13:44.476Z,20.60
2023-01-21T15:16:37.316Z,20.60
2023-01-21T15:19:17.999Z,20.50
2023-01-21T15:22:08.548Z,20.50
2023-01-21T15:24:46.294Z,20.50
2023-01-21T15:27:27.612Z,20.50
2023-01-21T15:30:02.522Z,20.40
2023-01-21T15:32:37.656Z,20.50
2023-01-21T15:35:19.123Z,20.50
2023-01-21T15:37:54.203Z,20.50
2023-01-21T15:40:28.609Z,20.50
2023-01-21T15:43:03.491Z,20.40
2023-01-21T15:45:38.507Z,20.40
2023-01-21T15:48:13.344Z,20.40
2023-01-21T15:51:25.932Z,20.40
2023-01-21T15:54:10.005Z,20.40
2023-01-21T15:57:10.674Z,20.30
2023-01-21T16:00:18.558Z,20.30
2023-01-21T16:02:59.907Z,20.30
2023-01-21T16:05:56.465Z,20.20
2023-01-21T16:08:38.254Z,20.20
2023-01-21T16:11:25.724Z,20.30
2023-01-21T16:14:00.905Z,20.30
2023-01-21T16:16:50.703Z,20.30
2023-01-21T16:19:25.383Z,20.30
2023-01-21T16:22:00.109Z,20.30
2023-01-21T16:24:33.450Z,20.20
2023-01-21T16:27:25.891Z,20.20
2023-01-21T16:30:03.293Z,20.20
2023-01-21T16:32:36.860Z,20.20
2023-01-21T16:35:10.502Z,20.20
2023-01-21T16:37:45.770Z,20.20
2023-01-21T16:40:30.132Z,20.20
2023-01-21T16:43:22.537Z,20.20
2023-01-21T16:45:57.521Z,20.10
2023-01-21T16:48:35.128Z,20.10
2023-01-21T16:51:08.642Z,20.10
2023-01-21T16:53:41.413Z,20.10
2023-01-21T16:56:16.155Z,20.10
2023-01-21T16:58:50.669Z,20.10
2023-01-21T17:01:24.965Z,20.10
2023-01-21T17:03:57.774Z,20.10
2023-01-21T17:06:35.003Z,20.10
2023-01-21T17:09:10.396Z,20.10
2023-01-21T17:11:48.563Z,20.10
2023-01-21T17:14:23.397Z,20.10
2023-01-21T17:16:57.777Z,20.10
2023-01-21T17:19:35.737Z,20.10
2023-01-21T17:22:18.469Z,20.10
2023-01-21T17:25:05.485Z,20.00
2023-01-21T17:27:40.019Z,20.00
2023-01-21T17:30:35.640Z,20.00
2023-01-21T17:33:08.530Z,20.00
2023-01-21T17:35:42.837Z,20.00
2023-01-21T17:38:17.724Z,20.00
2023-01-21T17:41:08.260Z,20.00
2023-01-21T17:43:42.664Z,20.00
2023-01-21T17:46:16.999Z,19.90
2023-01-21T17:48:50.266Z,19.90
2023-01-21T17:51:31.057Z,19.90
2023-01-21T17:54:08.659Z,19.90
2023-01-21T17:56:57.990Z,19.90
2023-01-21T17:59:44.020Z,19.90
2023-01-21T18:02:19.456Z,19.90
2023-01-21T18:04:52.329Z,19.90
2023-01-21T18:07:35.359Z,19.90
2023-01-21T18:10:10.020Z,19.90
2023-01-21T18:12:42.714Z,19.90
2023-01-21T18:15:17.555Z,19.90
2023-01-21T18:17:52.266Z,19.90
2023-01-21T18:20:27.464Z,19.90
2023-01-21T18:23:01.259Z,19.90
2023-01-21T18:25:38.847Z,19.90
2023-01-21T18:28:19.603Z,20.00
2023-01-21T18:30:53.025Z,20.00
2023-01-21T18:33:26.394Z,20.00
2023-01-21T18:36:01.799Z,20.00
2023-01-21T18:38:35.757Z,20.00
2023-01-21T18:41:10.110Z,20.00
2023-01-21T18:43:43.819Z,20.00
2023-01-21T18:46:18.194Z,20.10
2023-01-21T18:48:51.021Z,20.10
2023-01-21T18:51:23.883Z,20.10
2023-01-21T18:53:56.630Z,20.20
2023-01-21T18:56:29.418Z,20.20
2023-01-21T18:59:04.270Z,20.20
2023-01-21T19:01:37.257Z,20.30
2023-01-21T19:04:10.597Z,20.30
2023-01-21T19:06:43.467Z,20.30
2023-01-21T19:09:24.832Z,20.30
2023-01-21T19:11:58.439Z,20.40
2023-01-21T19:14:33.504Z,20.40
2023-01-21T19:17:06.297Z,20.50
2023-01-21T19:19:39.022Z,20.60
2023-01-21T19:22:16.397Z,20.60
2023-01-21T19:24:51.966Z,20.70
2023-01-21T19:27:35.604Z,20.70
2023-01-21T19:30:09.604Z,20.80
2023-01-21T19:32:44.500Z,20.80
2023-01-21T19:35:18.064Z,20.80
2023-01-21T19:37:54.715Z,20.80
2023-01-21T19:40:29.294Z,20.90
2023-01-21T19:43:02.187Z,20.90
2023-01-21T19:45:35.068Z,20.90
2023-01-21T19:48:09.543Z,20.90
2023-01-21T19:50:42.583Z,20.90
2023-01-21T19:53:19.884Z,21.00
2023-01-21T19:55:52.912Z,21.00
2023-01-21T19:58:27.943Z,21.00
2023-01-21T20:01:00.930Z,21.10
2023-01-21T20:03:34.290Z,21.10
2023-01-21T20:06:07.476Z,21.10
2023-01-21T20:08:40.656Z,21.20
2023-01-21T20:11:13.999Z,21.20
2023-01-21T20:13:47.610Z,21.30
2023-01-21T20:16:23.370Z,21.30
2023-01-21T20:18:57.759Z,21.30
2023-01-21T20:21:32.349Z,21.40
2023-01-21T20:24:05.654Z,21.40
2023-01-21T20:26:40.139Z,21.50
2023-01-21T20:29:15.246Z,21.50
2023-01-21T20:31:53.027Z,21.50
2023-01-21T20:34:30.329Z,21.50
2023-01-21T20:37:03.228Z,21.60
2023-01-21T20:39:37.092Z,21.60
2023-01-21T20:42:10.055Z,21.60
2023-01-21T20:44:42.707Z,21.60
2023-01-21T20:47:19.184Z,21.70
2023-01-21T20:49:50.332Z,21.80
2023-01-21T20:52:23.255Z,21.80
2023-01-21T20:54:56.296Z,21.90
2023-01-21T20:57:29.226Z,21.90
2023-01-21T21:00:02.489Z,22.00
2023-01-21T21:02:35.344Z,22.10
2023-01-21T21:05:08.379Z,22.30
2023-01-21T21:07:41.427Z,22.30
2023-01-21T21:10:26.744Z,22.40
2023-01-21T21:13:00.923Z,22.50
2023-01-21T21:15:35.235Z,22.60
2023-01-21T21:18:08.475Z,22.60
2023-01-21T21:20:41.989Z,22.70
2023-01-21T21:23:18.740Z,22.70
2023-01-21T21:25:52.195Z,22.80
2023-01-21T21:28:25.100Z,22.80
2023-01-21T21:30:58.222Z,22.80
2023-01-21T21:33:31.213Z,22.90
2023-01-21T21:36:04.649Z,22.90
2023-01-21T21:38:38.010Z,22.90
2023-01-21T21:41:29.245Z,22.90
2023-01-21T21:44:06.433Z,22.90
2023-01-21T21:46:57.340Z,23.00
2023-01-21T21:49:30.569Z,23.00
2023-01-21T21:52:03.374Z,23.00
2023-01-21T21:54:36.003Z,23.10
2023-01-21T21:57:09.039Z,23.10
2023-01-21T21:59:42.607Z,23.20
2023-01-21T22:02:16.356Z,23.30
2023-01-21T22:04:49.420Z,23.30
2023-01-21T22:07:22.475Z,23.40
2023-01-21T22:09:55.303Z,23.50
2023-01-21T22:12:29.351Z,23.50
2023-01-21T22:15:02.649Z,23.60
2023-01-21T22:17:36.325Z,23.60
2023-01-21T22:20:09.750Z,23.70
2023-01-21T22:22:43.299Z,23.70
2023-01-21T22:25:17.198Z,23.70
2023-01-21T22:27:55.173Z,23.80
2023-01-21T22:30:28.181Z,23.80
2023-01-21T22:33:01.335Z,23.90
2023-01-21T22:35:34.450Z,23.90
2023-01-21T22:38:08.216Z,23.90
2023-01-21T22:40:42.053Z,24.00
2023-01-21T22:43:15.116Z,24.00
2023-01-21T22:45:49.872Z,24.00
2023-01-21T22:48:22.928Z,24.00
2023-01-21T22:51:00.373Z,24.10
2023-01-21T22:53:33.577Z,24.20
2023-01-21T22:56:08.013Z,24.30
2023-01-21T22:58:41.085Z,24.30
2023-01-21T23:01:21.896Z,24.40
2023-01-21T23:03:54.863Z,24.50
2023-01-21T23:06:28.184Z,24.50
2023-01-21T23:09:01.175Z,24.60
2023-01-21T23:11:33.927Z,24.70
2023-01-21T23:14:06.762Z,24.70
2023-01-21T23:16:39.864Z,24.80
2023-01-21T23:19:12.877Z,24.80
2023-01-21T23:21:45.775Z,24.90
2023-01-21T23:24:18.547Z,24.90
2023-01-21T23:26:51.423Z,24.90
2023-01-21T23:29:24.374Z,25.00
2023-01-21T23:31:57.356Z,25.10
2023-01-21T23:34:30.553Z,25.10
2023-01-21T23:37:03.311Z,25.10
2023-01-21T23:39:36.107Z,25.20
2023-01-21T23:42:08.838Z,25.30
2023-01-21T23:44:42.478Z,25.30
2023-01-21T23:47:15.569Z,25.40
2023-01-21T23:49:52.631Z,25.40
2023-01-21T23:52:25.521Z,25.50
2023-01-21T23:54:58.437Z,25.50
2023-01-21T23:57:31.194Z,25.50
